createdAt,value
2024-02-13T00:04:50.637Z,100
2024-02-13T00:10:40.349Z,100
2024-02-13T00:15:50.617Z,100
2024-02-13T00:21:40.336Z,100
2024-02-13T00:26:40.395Z,100
2024-02-13T00:31:40.330Z,100
2024-02-13T00:36:50.669Z,100
2024-02-13T00:42:40.378Z,100
2024-02-13T00:47:50.680Z,100
2024-02-13T00:53:40.385Z,100
2024-02-13T00:58:50.749Z,100
2024-02-13T01:03:50.650Z,100
2024-02-13T01:09:40.358Z,100
2024-02-13T01:14:50.702Z,100
2024-02-13T01:19:50.699Z,100
2024-02-13T01:25:40.356Z,100
2024-02-13T01:30:40.349Z,100
2024-02-13T01:35:50.759Z,100
2024-02-13T01:41:40.449Z,100
2024-02-13T01:46:50.645Z,100
2024-02-13T01:51:50.625Z,100
2024-02-13T01:57:40.340Z,100
2024-02-13T02:02:40.438Z,100
2024-02-13T02:07:40.345Z,100
2024-02-13T02:12:50.598Z,100
2024-02-13T02:17:50.746Z,100
2024-02-13T02:22:50.658Z,100
2024-02-13T02:28:40.333Z,100
2024-02-13T02:33:40.435Z,100
2024-02-13T02:38:50.648Z,100
2024-02-13T02:43:50.625Z,100
2024-02-13T02:49:40.363Z,100
2024-02-13T02:54:40.349Z,100
2024-02-13T02:59:50.716Z,100
2024-02-13T03:05:40.423Z,100
2024-02-13T03:10:50.601Z,100
2024-02-13T03:15:50.618Z,100
2024-02-13T03:31:40.333Z,100
2024-02-13T03:36:40.345Z,100
2024-02-13T03:41:50.655Z,100
2024-02-13T03:46:50.683Z,100
2024-02-13T03:51:50.666Z,100
2024-02-13T03:57:40.333Z,100
2024-02-13T04:02:50.788Z,100
2024-02-13T04:13:40.324Z,100
2024-02-13T04:18:50.709Z,100
2024-02-13T04:24:40.329Z,100
2024-02-13T04:29:40.394Z,100
2024-02-13T04:34:50.628Z,100
2024-02-13T04:39:50.639Z,100
2024-02-13T04:45:40.344Z,100
2024-02-13T04:50:50.681Z,100
2024-02-13T04:56:40.376Z,100
2024-02-13T05:01:40.361Z,100
2024-02-13T05:06:50.694Z,100
2024-02-13T05:12:40.338Z,100
2024-02-13T05:17:40.389Z,100
2024-02-13T05:22:50.614Z,100
2024-02-13T05:27:50.614Z,100
2024-02-13T05:33:40.632Z,100
2024-02-13T05:38:50.776Z,100
2024-02-13T05:43:50.677Z,100
2024-02-13T05:49:40.426Z,100
2024-02-13T05:54:50.615Z,100
2024-02-13T06:00:40.613Z,100
2024-02-13T06:05:52.823Z,100
2024-02-13T06:10:51.055Z,100
2024-02-13T06:16:40.322Z,100
2024-02-13T06:21:40.347Z,100
2024-02-13T06:26:52.167Z,100
2024-02-13T06:32:40.403Z,100
2024-02-13T06:37:50.612Z,100
2024-02-13T06:42:50.626Z,100
2024-02-13T06:48:40.445Z,100
2024-02-13T06:53:50.661Z,100
2024-02-13T06:58:50.669Z,100
2024-02-13T07:04:40.336Z,100
2024-02-13T07:09:40.459Z,100
2024-02-13T07:19:50.710Z,100
2024-02-13T07:24:50.650Z,100
2024-02-13T07:30:40.330Z,100
2024-02-13T07:35:40.377Z,100
2024-02-13T07:40:40.329Z,100
2024-02-13T07:45:50.620Z,100
2024-02-13T07:51:40.345Z,100
2024-02-13T07:56:50.752Z,100
2024-02-13T08:02:40.347Z,100
2024-02-13T08:07:40.323Z,100
2024-02-13T08:12:50.609Z,100
2024-02-13T08:18:40.367Z,100
2024-02-13T08:23:40.369Z,100
2024-02-13T08:28:50.591Z,100
2024-02-13T08:33:50.818Z,100
2024-02-13T08:38:50.717Z,100
2024-02-13T08:43:50.661Z,100
2024-02-13T08:48:50.901Z,100
2024-02-13T08:54:40.307Z,100
2024-02-13T08:59:40.373Z,100
2024-02-13T09:04:40.369Z,100
2024-02-13T09:09:40.335Z,100
2024-02-13T09:14:50.709Z,100
2024-02-13T09:20:40.469Z,100
2024-02-13T09:25:50.643Z,100
2024-02-13T09:31:40.324Z,100
2024-02-13T09:36:40.366Z,100
2024-02-13T09:41:50.649Z,100
2024-02-13T09:47:40.441Z,100
2024-02-13T09:52:50.656Z,100
2024-02-13T09:57:50.746Z,100
2024-02-13T10:03:40.521Z,100
2024-02-13T10:08:40.354Z,100
2024-02-13T10:13:45.358Z,100
2024-02-13T10:18:40.598Z,100
2024-02-13T10:23:40.465Z,100
2024-02-13T10:28:50.636Z,100
2024-02-13T10:33:50.662Z,100
2024-02-13T10:39:40.345Z,100
2024-02-13T10:44:40.418Z,100
2024-02-13T10:49:50.662Z,98.5
2024-02-13T10:54:50.627Z,91
2024-02-13T11:00:40.408Z,72.9
2024-02-13T11:05:40.391Z,65
2024-02-13T11:10:50.620Z,61.3
2024-02-13T11:15:50.626Z,63.7
2024-02-13T11:20:50.675Z,64.1
2024-02-13T11:25:50.634Z,63.5
2024-02-13T11:31:41.242Z,57.3
2024-02-13T11:36:50.633Z,61.9
2024-02-13T11:41:50.682Z,60.3
2024-02-13T11:46:50.627Z,67.9
2024-02-13T11:51:50.646Z,63.5
2024-02-13T11:57:40.347Z,64.2
2024-02-13T12:02:50.915Z,64.6
2024-02-13T12:08:40.375Z,58.4
2024-02-13T12:13:40.374Z,72.3
2024-02-13T12:18:50.837Z,63.9
2024-02-13T12:24:40.366Z,65.9
2024-02-13T12:29:40.546Z,64
2024-02-13T12:34:40.615Z,66.9
2024-02-13T12:39:50.634Z,65.3
2024-02-13T12:44:50.659Z,70.1
2024-02-13T12:50:40.607Z,68.4
2024-02-13T12:55:50.730Z,63.6
2024-02-13T13:01:40.424Z,59.7
2024-02-13T13:06:50.653Z,59.8
2024-02-13T13:11:50.668Z,61.1
2024-02-13T13:17:40.510Z,63.7
2024-02-13T13:22:40.357Z,62.6
2024-02-13T13:27:50.641Z,64.1
2024-02-13T13:32:50.797Z,67.7
2024-02-13T13:38:40.453Z,72.5
2024-02-13T13:43:50.649Z,72.3
2024-02-13T13:49:40.415Z,70.5
2024-02-13T13:54:50.642Z,66.4
2024-02-13T14:00:40.385Z,69.5
2024-02-13T14:05:40.504Z,69.1
2024-02-13T14:10:50.667Z,73.6
2024-02-13T14:15:50.679Z,70.8
2024-02-13T14:21:40.383Z,73.3
2024-02-13T14:26:50.697Z,71.5
2024-02-13T14:31:50.657Z,72.6
2024-02-13T14:36:50.652Z,74.8
2024-02-13T14:41:50.772Z,79.9
2024-02-13T14:47:40.614Z,84.3
2024-02-13T14:52:50.659Z,83.4
2024-02-13T14:58:00.662Z,81.9
2024-02-13T15:03:40.373Z,80.1
2024-02-13T15:08:40.454Z,82.4
2024-02-13T15:13:50.670Z,89.7
2024-02-13T15:19:40.404Z,88.1
2024-02-13T15:24:40.397Z,89.1
2024-02-13T15:29:50.773Z,92
2024-02-13T15:35:40.415Z,94.8
2024-02-13T15:40:50.683Z,93.7
2024-02-13T15:45:50.715Z,91.8
2024-02-13T15:50:50.790Z,92.7
2024-02-13T15:56:40.397Z,92.6
2024-02-13T16:01:40.383Z,92.2
2024-02-13T16:06:40.439Z,94.9
2024-02-13T16:11:40.426Z,94.2
2024-02-13T16:16:50.789Z,99.3
2024-02-13T16:21:50.757Z,99.2
2024-02-13T16:27:40.366Z,94.8
2024-02-13T16:32:41.165Z,98.2
2024-02-13T16:42:40.390Z,100
2024-02-13T16:47:40.514Z,100
2024-02-13T16:52:50.704Z,100
2024-02-13T16:58:40.375Z,100
2024-02-13T17:03:50.762Z,100
2024-02-13T17:08:50.792Z,100
2024-02-13T17:14:40.394Z,100
2024-02-13T17:19:40.428Z,100
2024-02-13T17:24:40.387Z,100
2024-02-13T17:29:50.751Z,100
2024-02-13T17:35:40.416Z,100
2024-02-13T17:40:50.682Z,100
2024-02-13T17:45:50.695Z,100
2024-02-13T17:50:50.744Z,100
2024-02-13T17:56:40.409Z,100
2024-02-13T18:01:50.674Z,100
2024-02-13T18:06:50.878Z,100
2024-02-13T18:12:43.507Z,100
2024-02-13T18:17:50.723Z,100
2024-02-13T18:23:40.432Z,100
2024-02-13T18:28:40.425Z,100
2024-02-13T18:33:50.806Z,100
2024-02-13T18:44:40.449Z,100
2024-02-13T18:49:50.731Z,100
2024-02-13T18:54:50.658Z,100
2024-02-13T19:00:40.402Z,100
2024-02-13T19:05:50.732Z,100
2024-02-13T19:10:50.635Z,100
2024-02-13T19:15:50.650Z,100
2024-02-13T19:20:50.741Z,100
2024-02-13T19:26:40.422Z,100
2024-02-13T19:31:50.633Z,100
2024-02-13T19:37:40.364Z,100
2024-02-13T19:42:40.382Z,100
2024-02-13T19:47:50.758Z,100
2024-02-13T19:53:40.369Z,100
2024-02-13T19:58:40.517Z,100
2024-02-13T20:03:40.539Z,100
2024-02-13T20:08:40.592Z,100
2024-02-13T20:13:50.630Z,100
2024-02-13T20:18:50.818Z,100
2024-02-13T20:23:50.719Z,100
2024-02-13T20:29:40.383Z,100
2024-02-13T20:34:40.506Z,100
2024-02-13T20:39:50.689Z,100
2024-02-13T20:44:50.714Z,100
2024-02-13T20:49:50.714Z,100
2024-02-13T20:55:40.401Z,100
2024-02-13T21:00:40.523Z,100
2024-02-13T21:05:50.649Z,100
2024-02-13T21:10:50.654Z,100
2024-02-13T21:15:50.728Z,100
2024-02-13T21:21:40.359Z,100
2024-02-13T21:31:50.647Z,100
2024-02-13T21:36:50.705Z,100
2024-02-13T21:41:50.676Z,100
2024-02-13T21:47:40.455Z,100
2024-02-13T21:52:50.653Z,100
2024-02-13T21:57:50.710Z,100
2024-02-13T22:03:40.431Z,100
2024-02-13T22:08:40.444Z,100
2024-02-13T22:13:50.651Z,100
2024-02-13T22:18:50.877Z,100
2024-02-13T22:24:40.392Z,100
2024-02-13T22:29:40.404Z,100
2024-02-13T22:34:40.416Z,100
2024-02-13T22:39:40.377Z,100
2024-02-13T22:44:50.722Z,100
2024-02-13T22:50:40.409Z,100
2024-02-13T22:55:40.389Z,100
2024-02-13T23:00:51.280Z,100
2024-02-13T23:05:50.715Z,100
2024-02-13T23:10:50.639Z,100
2024-02-13T23:15:50.692Z,100
2024-02-13T23:20:50.733Z,100
2024-02-13T23:25:50.735Z,100
2024-02-13T23:31:40.412Z,100
2024-02-13T23:36:40.469Z,100
2024-02-13T23:41:50.944Z,100
2024-02-13T23:46:50.827Z,100
2024-02-13T23:52:40.378Z,100
2024-02-13T23:57:50.670Z,100
